sensor_id;sensor_type;location;lat;lon;timestamp;pressure;altitude;pressure_sealevel;temperature;humidity
17383;BME280;8809;51.892;8.384;2022-10-26T00:01:02;100617.00;;;9.62;100.00
17383;BME280;8809;51.892;8.384;2022-10-26T00:03:29;100620.38;;;9.60;100.00
17383;BME280;8809;51.892;8.384;2022-10-26T00:06:03;100614.28;;;9.59;100.00
17383;BME280;8809;51.892;8.384;2022-10-26T00:08:31;100611.59;;;9.58;100.00
17383;BME280;8809;51.892;8.384;2022-10-26T00:10:58;100612.41;;;9.57;100.00
17383;BME280;8809;51.892;8.384;2022-10-26T00:13:25;100609.72;;;9.55;100.00
17383;BME280;8809;51.892;8.384;2022-10-26T00:15:52;100605.34;;;9.54;100.00
17383;BME280;8809;51.892;8.384;2022-10-26T00:18:19;100606.16;;;9.53;100.00
17383;BME280;8809;51.892;8.384;2022-10-26T00:20:46;100610.47;;;9.53;100.00
17383;BME280;8809;51.892;8.384;2022-10-26T00:23:15;100606.94;;;9.51;100.00
17383;BME280;8809;51.892;8.384;2022-10-26T00:25:41;100603.44;;;9.50;100.00
17383;BME280;8809;51.892;8.384;2022-10-26T00:28:08;100599.84;;;9.48;100.00
17383;BME280;8809;51.892;8.384;2022-10-26T00:30:38;100613.69;;;9.47;100.00
17383;BME280;8809;51.892;8.384;2022-10-26T00:33:05;100604.03;;;9.45;100.00
17383;BME280;8809;51.892;8.384;2022-10-26T00:35:32;100600.53;;;9.44;100.00
17383;BME280;8809;51.892;8.384;2022-10-26T00:37:59;100603.06;;;9.43;100.00
17383;BME280;8809;51.892;8.384;2022-10-26T00:40:28;100602.16;;;9.42;100.00
17383;BME280;8809;51.892;8.384;2022-10-26T00:42:55;100597.72;;;9.40;100.00
17383;BME280;8809;51.892;8.384;2022-10-26T00:45:24;100606.34;;;9.39;100.00
17383;BME280;8809;51.892;8.384;2022-10-26T00:47:53;100601.16;;;9.39;100.00
17383;BME280;8809;51.892;8.384;2022-10-26T00:50:26;100594.09;;;9.36;100.00
17383;BME280;8809;51.892;8.384;2022-10-26T00:52:56;100601.00;;;9.36;100.00
17383;BME280;8809;51.892;8.384;2022-10-26T00:55:26;100600.09;;;9.35;100.00
17383;BME280;8809;51.892;8.384;2022-10-26T00:58:00;100591.31;;;9.33;100.00
17383;BME280;8809;51.892;8.384;2022-10-26T01:00:29;100595.63;;;9.32;100.00
17383;BME280;8809;51.892;8.384;2022-10-26T01:02:58;100593.88;;;9.32;100.00
17383;BME280;8809;51.892;8.384;2022-10-26T01:05:27;100592.09;;;9.30;100.00
17383;BME280;8809;51.892;8.384;2022-10-26T01:07:55;100585.19;;;9.31;100.00
17383;BME280;8809;51.892;8.384;2022-10-26T01:10:24;100580.78;;;9.30;100.00
17383;BME280;8809;51.892;8.384;2022-10-26T01:12:51;100583.31;;;9.28;100.00
17383;BME280;8809;51.892;8.384;2022-10-26T01:15:25;100583.31;;;9.28;100.00
17383;BME280;8809;51.892;8.384;2022-10-26T01:17:56;100580.72;;;9.28;100.00
17383;BME280;8809;51.892;8.384;2022-10-26T01:20:43;100576.34;;;9.27;100.00
17383;BME280;8809;51.892;8.384;2022-10-26T01:23:24;100574.53;;;9.26;100.00
17383;BME280;8809;51.892;8.384;2022-10-26T01:26:30;100574.53;;;9.26;100.00
17383;BME280;8809;51.892;8.384;2022-10-26T01:29:13;100571.94;;;9.26;100.00
17383;BME280;8809;51.892;8.384;2022-10-26T01:31:49;100570.16;;;9.25;100.00
17383;BME280;8809;51.892;8.384;2022-10-26T01:34:24;100569.19;;;9.23;100.00
17383;BME280;8809;51.892;8.384;2022-10-26T01:36:55;100565.75;;;9.24;100.00
17383;BME280;8809;51.892;8.384;2022-10-26T01:39:28;100557.88;;;9.23;100.00
17383;BME280;8809;51.892;8.384;2022-10-26T01:41:57;100557.03;;;9.22;100.00
17383;BME280;8809;51.892;8.384;2022-10-26T01:44:28;100557.03;;;9.22;100.00
17383;BME280;8809;51.892;8.384;2022-10-26T01:46:58;100550.94;;;9.22;100.00
17383;BME280;8809;51.892;8.384;2022-10-26T01:49:30;100546.53;;;9.21;100.00
17383;BME280;8809;51.892;8.384;2022-10-26T01:51:58;100547.44;;;9.21;100.00
17383;BME280;8809;51.892;8.384;2022-10-26T01:54:25;100539.63;;;9.21;100.00
17383;BME280;8809;51.892;8.384;2022-10-26T01:56:56;100539.63;;;9.21;100.00
17383;BME280;8809;51.892;8.384;2022-10-26T01:59:32;100537.91;;;9.22;100.00
17383;BME280;8809;51.892;8.384;2022-10-26T02:02:23;100530.03;;;9.20;100.00
17383;BME280;8809;51.892;8.384;2022-10-26T02:05:24;100541.25;;;9.19;100.00
17383;BME280;8809;51.892;8.384;2022-10-26T02:08:04;100537.75;;;9.19;100.00
17383;BME280;8809;51.892;8.384;2022-10-26T02:10:42;100536.13;;;9.21;100.00
17383;BME280;8809;51.892;8.384;2022-10-26T02:13:17;100535.22;;;9.20;100.00
17383;BME280;8809;51.892;8.384;2022-10-26T02:15:52;100533.44;;;9.19;100.00
17383;BME280;8809;51.892;8.384;2022-10-26T02:18:28;100524.75;;;9.19;100.00
17383;BME280;8809;51.892;8.384;2022-10-26T02:21:06;100517.75;;;9.18;100.00
17383;BME280;8809;51.892;8.384;2022-10-26T02:23:37;100522.06;;;9.17;100.00
17383;BME280;8809;51.892;8.384;2022-10-26T02:26:07;100519.47;;;9.17;100.00
17383;BME280;8809;51.892;8.384;2022-10-26T02:28:37;100511.66;;;9.17;100.00
17383;BME280;8809;51.892;8.384;2022-10-26T02:31:07;100516.88;;;9.17;100.00
17383;BME280;8809;51.892;8.384;2022-10-26T02:33:39;100506.44;;;9.17;100.00
17383;BME280;8809;51.892;8.384;2022-10-26T02:36:09;100495.97;;;9.16;100.00
17383;BME280;8809;51.892;8.384;2022-10-26T02:38:38;100505.56;;;9.17;100.00
17383;BME280;8809;51.892;8.384;2022-10-26T02:41:07;100503.78;;;9.16;100.00
17383;BME280;8809;51.892;8.384;2022-10-26T02:43:42;100498.56;;;9.16;100.00
17383;BME280;8809;51.892;8.384;2022-10-26T02:46:14;100495.88;;;9.14;100.00
17383;BME280;8809;51.892;8.384;2022-10-26T02:48:44;100490.69;;;9.14;100.00
17383;BME280;8809;51.892;8.384;2022-10-26T02:51:13;100491.56;;;9.15;100.00
17383;BME280;8809;51.892;8.384;2022-10-26T02:53:47;100486.31;;;9.13;100.00
17383;BME280;8809;51.892;8.384;2022-10-26T02:56:21;100489.78;;;9.14;100.00
17383;BME280;8809;51.892;8.384;2022-10-26T02:58:52;100487.19;;;9.14;100.00
17383;BME280;8809;51.892;8.384;2022-10-26T03:01:21;100491.50;;;9.13;100.00
17383;BME280;8809;51.892;8.384;2022-10-26T03:03:50;100489.78;;;9.14;100.00
17383;BME280;8809;51.892;8.384;2022-10-26T03:06:21;100490.69;;;9.14;100.00
17383;BME280;8809;51.892;8.384;2022-10-26T03:08:48;100485.47;;;9.14;100.00
17383;BME280;8809;51.892;8.384;2022-10-26T03:11:15;100489.88;;;9.15;100.00
17383;BME280;8809;51.892;8.384;2022-10-26T03:13:42;100484.75;;;9.17;100.00
17383;BME280;8809;51.892;8.384;2022-10-26T03:16:10;100484.81;;;9.18;100.00
17383;BME280;8809;51.892;8.384;2022-10-26T03:18:37;100471.81;;;9.18;100.00
17383;BME280;8809;51.892;8.384;2022-10-26T03:21:05;100470.97;;;9.19;100.00
17383;BME280;8809;51.892;8.384;2022-10-26T03:23:32;100471.94;;;9.21;100.00
17383;BME280;8809;51.892;8.384;2022-10-26T03:25:59;100468.53;;;9.22;100.00
17383;BME280;8809;51.892;8.384;2022-10-26T03:28:26;100462.47;;;9.23;100.00
17383;BME280;8809;51.892;8.384;2022-10-26T03:30:53;100469.53;;;9.26;100.00
17383;BME280;8809;51.892;8.384;2022-10-26T03:33:20;100471.31;;;9.27;100.00
17383;BME280;8809;51.892;8.384;2022-10-26T03:35:53;100470.50;;;9.28;100.00
17383;BME280;8809;51.892;8.384;2022-10-26T03:38:22;100474.00;;;9.28;100.00
17383;BME280;8809;51.892;8.384;2022-10-26T03:40:49;100474.13;;;9.32;100.00
17383;BME280;8809;51.892;8.384;2022-10-26T03:43:16;100477.63;;;9.32;100.00
17383;BME280;8809;51.892;8.384;2022-10-26T03:45:43;100467.34;;;9.35;100.00
17383;BME280;8809;51.892;8.384;2022-10-26T03:48:10;100474.41;;;9.38;100.00
17383;BME280;8809;51.892;8.384;2022-10-26T03:50:37;100472.75;;;9.40;100.00
17383;BME280;8809;51.892;8.384;2022-10-26T03:53:04;100465.03;;;9.41;100.00
17383;BME280;8809;51.892;8.384;2022-10-26T03:55:33;100463.41;;;9.45;100.00
17383;BME280;8809;51.892;8.384;2022-10-26T03:58:00;100458.34;;;9.48;100.00
17383;BME280;8809;51.892;8.384;2022-10-26T04:00:27;100465.34;;;9.49;100.00
17383;BME280;8809;51.892;8.384;2022-10-26T04:02:55;100464.53;;;9.50;100.00
17383;BME280;8809;51.892;8.384;2022-10-26T04:05:22;100464.72;;;9.54;100.00
17383;BME280;8809;51.892;8.384;2022-10-26T04:07:52;100464.78;;;9.56;100.00
17383;BME280;8809;51.892;8.384;2022-10-26T04:10:20;100468.34;;;9.58;100.00
17383;BME280;8809;51.892;8.384;2022-10-26T04:12:49;100467.53;;;9.59;100.00
17383;BME280;8809;51.892;8.384;2022-10-26T04:15:16;100464.91;;;9.59;100.00
17383;BME280;8809;51.892;8.384;2022-10-26T04:17:43;100466.72;;;9.60;100.00
17383;BME280;8809;51.892;8.384;2022-10-26T04:20:11;100465.00;;;9.60;100.00
17383;BME280;8809;51.892;8.384;2022-10-26T04:22:40;100472.81;;;9.60;100.00
17383;BME280;8809;51.892;8.384;2022-10-26T04:25:07;100468.41;;;9.59;100.00
17383;BME280;8809;51.892;8.384;2022-10-26T04:27:35;100471.91;;;9.60;100.00
17383;BME280;8809;51.892;8.384;2022-10-26T04:30:04;100473.63;;;9.59;100.00
17383;BME280;8809;51.892;8.384;2022-10-26T04:32:34;100470.13;;;9.59;100.00
17383;BME280;8809;51.892;8.384;2022-10-26T04:35:01;100464.09;;;9.60;100.00
17383;BME280;8809;51.892;8.384;2022-10-26T04:37:28;100460.59;;;9.59;100.00
17383;BME280;8809;51.892;8.384;2022-10-26T04:39:55;100458.91;;;9.60;100.00
17383;BME280;8809;51.892;8.384;2022-10-26T04:42:22;100453.72;;;9.61;100.00
17383;BME280;8809;51.892;8.384;2022-10-26T04:44:49;100450.28;;;9.62;100.00
17383;BME280;8809;51.892;8.384;2022-10-26T04:47:17;100454.75;;;9.65;100.00
17383;BME280;8809;51.892;8.384;2022-10-26T04:49:44;100448.66;;;9.64;100.00
17383;BME280;8809;51.892;8.384;2022-10-26T04:52:11;100453.88;;;9.64;100.00
17383;BME280;8809;51.892;8.384;2022-10-26T04:54:38;100454.75;;;9.65;100.00
17383;BME280;8809;51.892;8.384;2022-10-26T04:57:05;100452.16;;;9.65;100.00
17383;BME280;8809;51.892;8.384;2022-10-26T04:59:32;100451.41;;;9.67;100.00
17383;BME280;8809;51.892;8.384;2022-10-26T05:01:59;100447.91;;;9.67;100.00
17383;BME280;8809;51.892;8.384;2022-10-26T05:04:27;100453.25;;;9.70;100.00
17383;BME280;8809;51.892;8.384;2022-10-26T05:06:54;100450.69;;;9.72;100.00
17383;BME280;8809;51.892;8.384;2022-10-26T05:09:21;100453.34;;;9.73;100.00
17383;BME280;8809;51.892;8.384;2022-10-26T05:11:47;100456.03;;;9.75;100.00
17383;BME280;8809;51.892;8.384;2022-10-26T05:14:14;100453.44;;;9.75;100.00
17383;BME280;8809;51.892;8.384;2022-10-26T05:16:41;100456.03;;;9.75;100.00
17383;BME280;8809;51.892;8.384;2022-10-26T05:19:09;100459.59;;;9.77;100.00
17383;BME280;8809;51.892;8.384;2022-10-26T05:21:37;100455.28;;;9.77;100.00
17383;BME280;8809;51.892;8.384;2022-10-26T05:24:05;100457.06;;;9.78;100.00
17383;BME280;8809;51.892;8.384;2022-10-26T05:26:32;100453.63;;;9.79;100.00
17383;BME280;8809;51.892;8.384;2022-10-26T05:28:59;100458.06;;;9.82;100.00
17383;BME280;8809;51.892;8.384;2022-10-26T05:31:26;100454.63;;;9.83;100.00
17383;BME280;8809;51.892;8.384;2022-10-26T05:33:53;100462.53;;;9.84;100.00
17383;BME280;8809;51.892;8.384;2022-10-26T05:36:20;100464.25;;;9.84;100.00
17383;BME280;8809;51.892;8.384;2022-10-26T05:38:48;100464.31;;;9.85;100.00
17383;BME280;8809;51.892;8.384;2022-10-26T05:41:15;100464.25;;;9.84;100.00
17383;BME280;8809;51.892;8.384;2022-10-26T05:43:42;100465.13;;;9.84;100.00
17383;BME280;8809;51.892;8.384;2022-10-26T05:46:09;100461.63;;;9.84;100.00
17383;BME280;8809;51.892;8.384;2022-10-26T05:48:36;100467.88;;;9.87;100.00
17383;BME280;8809;51.892;8.384;2022-10-26T05:51:03;100467.88;;;9.87;100.00
17383;BME280;8809;51.892;8.384;2022-10-26T05:53:30;100469.66;;;9.88;100.00
17383;BME280;8809;51.892;8.384;2022-10-26T05:55:59;100470.56;;;9.89;100.00
17383;BME280;8809;51.892;8.384;2022-10-26T05:58:26;100463.66;;;9.91;100.00
17383;BME280;8809;51.892;8.384;2022-10-26T06:01:04;100473.25;;;9.92;100.00
17383;BME280;8809;51.892;8.384;2022-10-26T06:03:41;100472.50;;;9.94;100.00
17383;BME280;8809;51.892;8.384;2022-10-26T06:06:12;100473.47;;;9.96;100.00
17383;BME280;8809;51.892;8.384;2022-10-26T06:08:39;100484.03;;;9.99;100.00
17383;BME280;8809;51.892;8.384;2022-10-26T06:11:10;100474.53;;;10.01;100.00
17383;BME280;8809;51.892;8.384;2022-10-26T06:13:37;100478.16;;;10.05;100.00
17383;BME280;8809;51.892;8.384;2022-10-26T06:16:21;100475.63;;;10.07;100.00
17383;BME280;8809;51.892;8.384;2022-10-26T06:19:05;100479.22;;;10.10;100.00
17383;BME280;8809;51.892;8.384;2022-10-26T06:21:46;100483.75;;;10.14;100.00
17383;BME280;8809;51.892;8.384;2022-10-26T06:24:21;100488.34;;;10.20;100.00
17383;BME280;8809;51.892;8.384;2022-10-26T06:26:56;100493.72;;;10.23;100.00
17383;BME280;8809;51.892;8.384;2022-10-26T06:29:35;100497.34;;;10.26;100.00
17383;BME280;8809;51.892;8.384;2022-10-26T06:32:04;100490.50;;;10.30;100.00
17383;BME280;8809;51.892;8.384;2022-10-26T06:34:33;100494.16;;;10.33;100.00
17383;BME280;8809;51.892;8.384;2022-10-26T06:37:01;100497.78;;;10.37;100.00
17383;BME280;8809;51.892;8.384;2022-10-26T06:39:30;100493.56;;;10.40;100.00
17383;BME280;8809;51.892;8.384;2022-10-26T06:42:03;100502.41;;;10.44;100.00
17383;BME280;8809;51.892;8.384;2022-10-26T06:44:30;100501.66;;;10.47;100.00
17383;BME280;8809;51.892;8.384;2022-10-26T06:47:03;100505.25;;;10.50;100.00
17383;BME280;8809;51.892;8.384;2022-10-26T06:49:34;100496.72;;;10.54;100.00
17383;BME280;8809;51.892;8.384;2022-10-26T06:52:08;100497.78;;;10.59;100.00
17383;BME280;8809;51.892;8.384;2022-10-26T06:54:46;100504.84;;;10.62;100.00
17383;BME280;8809;51.892;8.384;2022-10-26T06:57:17;100495.44;;;10.65;100.00
17383;BME280;8809;51.892;8.384;2022-10-26T06:59:48;100497.38;;;10.71;100.00
17383;BME280;8809;51.892;8.384;2022-10-26T07:02:16;100501.03;;;10.74;100.00
17383;BME280;8809;51.892;8.384;2022-10-26T07:04:43;100505.50;;;10.78;100.00
17383;BME280;8809;51.892;8.384;2022-10-26T07:07:12;100500.47;;;10.83;100.00
17383;BME280;8809;51.892;8.384;2022-10-26T07:10:05;100504.09;;;10.87;100.00
17383;BME280;8809;51.892;8.384;2022-10-26T07:12:57;100506.94;;;10.93;100.00
17383;BME280;8809;51.892;8.384;2022-10-26T07:15:24;100510.59;;;10.98;100.00
17383;BME280;8809;51.892;8.384;2022-10-26T07:17:51;100506.41;;;11.01;100.00
17383;BME280;8809;51.892;8.384;2022-10-26T07:20:20;100507.44;;;11.05;100.00
17383;BME280;8809;51.892;8.384;2022-10-26T07:22:50;100511.03;;;11.08;100.00
17383;BME280;8809;51.892;8.384;2022-10-26T07:25:17;100507.66;;;11.11;100.00
17383;BME280;8809;51.892;8.384;2022-10-26T07:27:45;100509.50;;;11.13;100.00
17383;BME280;8809;51.892;8.384;2022-10-26T07:30:15;100510.47;;;11.17;100.00
17383;BME280;8809;51.892;8.384;2022-10-26T07:32:43;100509.66;;;11.18;100.00
17383;BME280;8809;51.892;8.384;2022-10-26T07:35:10;100513.22;;;11.20;100.00
17383;BME280;8809;51.892;8.384;2022-10-26T07:37:37;100510.66;;;11.22;100.00
17383;BME280;8809;51.892;8.384;2022-10-26T07:40:05;100510.72;;;11.23;100.00
17383;BME280;8809;51.892;8.384;2022-10-26T07:42:46;100512.59;;;11.27;100.00
17383;BME280;8809;51.892;8.384;2022-10-26T07:45:15;100514.44;;;11.30;100.00
17383;BME280;8809;51.892;8.384;2022-10-26T07:47:42;100516.34;;;11.34;100.00
17383;BME280;8809;51.892;8.384;2022-10-26T07:50:10;100520.00;;;11.39;100.00
17383;BME280;8809;51.892;8.384;2022-10-26T07:52:39;100511.47;;;11.43;100.00
17383;BME280;8809;51.892;8.384;2022-10-26T07:55:07;100509.00;;;11.47;100.00
17383;BME280;8809;51.892;8.384;2022-10-26T07:57:34;100516.19;;;11.53;100.00
17383;BME280;8809;51.892;8.384;2022-10-26T08:00:03;100508.50;;;11.58;100.00
17383;BME280;8809;51.892;8.384;2022-10-26T08:02:32;100514.72;;;11.61;100.00
17383;BME280;8809;51.892;8.384;2022-10-26T08:04:59;100521.00;;;11.66;100.00
17383;BME280;8809;51.892;8.384;2022-10-26T08:07:26;100515.06;;;11.70;100.00
17383;BME280;8809;51.892;8.384;2022-10-26T08:09:53;100515.25;;;11.75;100.00
17383;BME280;8809;51.892;8.384;2022-10-26T08:12:20;100515.47;;;11.81;100.00
17383;BME280;8809;51.892;8.384;2022-10-26T08:14:47;100516.50;;;11.86;100.00
17383;BME280;8809;51.892;8.384;2022-10-26T08:17:14;100523.72;;;11.93;100.00
17383;BME280;8809;51.892;8.384;2022-10-26T08:19:42;100522.16;;;11.98;100.00
17383;BME280;8809;51.892;8.384;2022-10-26T08:22:09;100511.84;;;12.03;100.00
17383;BME280;8809;51.892;8.384;2022-10-26T08:24:36;100514.69;;;12.09;100.00
17383;BME280;8809;51.892;8.384;2022-10-26T08:27:03;100515.72;;;12.14;100.00
17383;BME280;8809;51.892;8.384;2022-10-26T08:29:30;100510.72;;;12.20;100.00
17383;BME280;8809;51.892;8.384;2022-10-26T08:31:58;100513.53;;;12.26;100.00
17383;BME280;8809;51.892;8.384;2022-10-26T08:34:26;100510.19;;;12.30;100.00
17383;BME280;8809;51.892;8.384;2022-10-26T08:36:54;100511.28;;;12.37;100.00
17383;BME280;8809;51.892;8.384;2022-10-26T08:39:22;100507.06;;;12.42;100.00
17383;BME280;8809;51.892;8.384;2022-10-26T08:41:52;100512.53;;;12.48;100.00
17383;BME280;8809;51.892;8.384;2022-10-26T08:44:24;100512.69;;;12.54;100.00
17383;BME280;8809;51.892;8.384;2022-10-26T08:46:57;100517.22;;;12.59;100.00
17383;BME280;8809;51.892;8.384;2022-10-26T08:49:29;100512.16;;;12.64;100.00
17383;BME280;8809;51.892;8.384;2022-10-26T08:52:00;100506.19;;;12.68;100.00
17383;BME280;8809;51.892;8.384;2022-10-26T08:54:34;100510.72;;;12.74;100.00
17383;BME280;8809;51.892;8.384;2022-10-26T08:57:11;100507.38;;;12.78;100.00
17383;BME280;8809;51.892;8.384;2022-10-26T08:59:44;100505.75;;;12.83;100.00
17383;BME280;8809;51.892;8.384;2022-10-26T09:02:13;100508.53;;;12.87;100.00
17383;BME280;8809;51.892;8.384;2022-10-26T09:04:41;100513.94;;;12.93;100.00
17383;BME280;8809;51.892;8.384;2022-10-26T09:07:17;100505.38;;;12.97;100.00
17383;BME280;8809;51.892;8.384;2022-10-26T09:09:52;100512.44;;;13.01;100.00
17383;BME280;8809;51.892;8.384;2022-10-26T09:12:25;100507.38;;;13.08;100.00
17383;BME280;8809;51.892;8.384;2022-10-26T09:15:04;100503.34;;;13.17;100.00
17383;BME280;8809;51.892;8.384;2022-10-26T09:17:42;100507.94;;;13.24;100.00
17383;BME280;8809;51.892;8.384;2022-10-26T09:20:27;100501.13;;;13.31;100.00
17383;BME280;8809;51.892;8.384;2022-10-26T09:23:03;100503.91;;;13.37;100.00
17383;BME280;8809;51.892;8.384;2022-10-26T09:25:37;100512.03;;;13.46;100.00
17383;BME280;8809;51.892;8.384;2022-10-26T09:28:12;100514.91;;;13.54;100.00
17383;BME280;8809;51.892;8.384;2022-10-26T09:30:43;100516.94;;;13.64;100.00
17383;BME280;8809;51.892;8.384;2022-10-26T09:33:14;100504.94;;;13.72;100.00
17383;BME280;8809;51.892;8.384;2022-10-26T09:35:44;100511.25;;;13.80;100.00
17383;BME280;8809;51.892;8.384;2022-10-26T09:38:20;100513.22;;;13.89;100.00
17383;BME280;8809;51.892;8.384;2022-10-26T09:40:55;100511.75;;;13.98;100.00
17383;BME280;8809;51.892;8.384;2022-10-26T09:43:27;100506.75;;;14.07;100.00
17383;BME280;8809;51.892;8.384;2022-10-26T09:45:57;100511.41;;;14.19;100.00
17383;BME280;8809;51.892;8.384;2022-10-26T09:48:28;100516.00;;;14.28;100.00
17383;BME280;8809;51.892;8.384;2022-10-26T09:50:58;100514.50;;;14.37;100.00
17383;BME280;8809;51.892;8.384;2022-10-26T09:53:26;100516.63;;;14.51;100.00
17383;BME280;8809;51.892;8.384;2022-10-26T09:56:00;100522.19;;;14.64;100.00
17383;BME280;8809;51.892;8.384;2022-10-26T09:58:33;100521.47;;;14.71;100.00
17383;BME280;8809;51.892;8.384;2022-10-26T10:01:02;100521.66;;;14.79;100.00
17383;BME280;8809;51.892;8.384;2022-10-26T10:03:30;100528.00;;;14.87;100.00
17383;BME280;8809;51.892;8.384;2022-10-26T10:06:15;100537.81;;;14.96;100.00
17383;BME280;8809;51.892;8.384;2022-10-26T10:09:03;100542.38;;;15.04;100.00
17383;BME280;8809;51.892;8.384;2022-10-26T10:11:37;100554.06;;;15.17;100.00
17383;BME280;8809;51.892;8.384;2022-10-26T10:14:06;100557.88;;;15.31;100.00
17383;BME280;8809;51.892;8.384;2022-10-26T10:16:34;100566.06;;;15.45;100.00
17383;BME280;8809;51.892;8.384;2022-10-26T10:19:02;100566.38;;;15.57;100.00
17383;BME280;8809;51.892;8.384;2022-10-26T10:21:34;100577.94;;;15.67;100.00
17383;BME280;8809;51.892;8.384;2022-10-26T10:24:21;100577.28;;;15.78;100.00
17383;BME280;8809;51.892;8.384;2022-10-26T10:26:55;100577.50;;;15.89;100.00
17383;BME280;8809;51.892;8.384;2022-10-26T10:29:24;100577.78;;;16.03;100.00
17383;BME280;8809;51.892;8.384;2022-10-26T10:31:55;100584.16;;;16.14;100.00
17383;BME280;8809;51.892;8.384;2022-10-26T10:34:22;100586.97;;;16.26;100.00
17383;BME280;8809;51.892;8.384;2022-10-26T10:36:50;100596.00;;;16.39;100.00
17383;BME280;8809;51.892;8.384;2022-10-26T10:39:32;100595.34;;;16.50;100.00
17383;BME280;8809;51.892;8.384;2022-10-26T10:41:59;100590.25;;;16.61;100.00
17383;BME280;8809;51.892;8.384;2022-10-26T10:44:28;100591.34;;;16.71;100.00
17383;BME280;8809;51.892;8.384;2022-10-26T10:47:01;100598.50;;;16.79;100.00
17383;BME280;8809;51.892;8.384;2022-10-26T10:49:30;100599.50;;;16.87;100.00
17383;BME280;8809;51.892;8.384;2022-10-26T10:51:58;100594.38;;;16.96;100.00
17383;BME280;8809;51.892;8.384;2022-10-26T10:54:30;100598.91;;;17.05;100.00
17383;BME280;8809;51.892;8.384;2022-10-26T10:57:10;100601.63;;;17.11;100.00
17383;BME280;8809;51.892;8.384;2022-10-26T10:59:53;100600.88;;;17.18;100.00
17383;BME280;8809;51.892;8.384;2022-10-26T11:02:49;100601.88;;;17.26;100.00
17383;BME280;8809;51.892;8.384;2022-10-26T11:05:23;100609.94;;;17.37;100.00
17383;BME280;8809;51.892;8.384;2022-10-26T11:07:59;100617.09;;;17.46;100.00
17383;BME280;8809;51.892;8.384;2022-10-26T11:10:31;100609.25;;;17.53;100.00
17383;BME280;8809;51.892;8.384;2022-10-26T11:13:03;100611.13;;;17.59;100.00
17383;BME280;8809;51.892;8.384;2022-10-26T11:15:36;100620.94;;;17.69;100.00
17383;BME280;8809;51.892;8.384;2022-10-26T11:18:11;100620.19;;;17.79;100.00
17383;BME280;8809;51.892;8.384;2022-10-26T11:20:44;100625.56;;;17.88;100.00
17383;BME280;8809;51.892;8.384;2022-10-26T11:23:16;100626.59;;;17.96;100.00
17383;BME280;8809;51.892;8.384;2022-10-26T11:25:50;100623.19;;;18.06;100.00
17383;BME280;8809;51.892;8.384;2022-10-26T11:28:36;100622.41;;;18.15;100.00
17383;BME280;8809;51.892;8.384;2022-10-26T11:31:10;100632.19;;;18.25;100.00
17383;BME280;8809;51.892;8.384;2022-10-26T11:33:41;100639.28;;;18.31;100.00
17383;BME280;8809;51.892;8.384;2022-10-26T11:36:13;100642.00;;;18.38;100.00
17383;BME280;8809;51.892;8.384;2022-10-26T11:38:46;100636.78;;;18.46;100.00
17383;BME280;8809;51.892;8.384;2022-10-26T11:41:30;100636.88;;;18.52;100.00
17383;BME280;8809;51.892;8.384;2022-10-26T11:44:04;100629.91;;;18.59;100.00
17383;BME280;8809;51.892;8.384;2022-10-26T11:46:37;100633.50;;;18.65;100.00
17383;BME280;8809;51.892;8.384;2022-10-26T11:49:12;100629.19;;;18.73;100.00
17383;BME280;8809;51.892;8.384;2022-10-26T11:51:46;100626.59;;;18.81;100.00
17383;BME280;8809;51.892;8.384;2022-10-26T11:54:19;100636.38;;;18.89;100.00
17383;BME280;8809;51.892;8.384;2022-10-26T11:56:52;100632.91;;;18.97;100.00
17383;BME280;8809;51.892;8.384;2022-10-26T11:59:21;100640.00;;;19.04;100.00
17383;BME280;8809;51.892;8.384;2022-10-26T12:01:52;100634.78;;;19.13;100.00
17383;BME280;8809;51.892;8.384;2022-10-26T12:04:22;100632.16;;;19.16;100.00
17383;BME280;8809;51.892;8.384;2022-10-26T12:06:53;100627.81;;;19.24;100.00
17383;BME280;8809;51.892;8.384;2022-10-26T12:09:26;100640.19;;;19.28;100.00
17383;BME280;8809;51.892;8.384;2022-10-26T12:12:01;100635.00;;;19.40;100.00
17383;BME280;8809;51.892;8.384;2022-10-26T12:14:37;100633.31;;;19.53;100.00
17383;BME280;8809;51.892;8.384;2022-10-26T12:17:10;100649.28;;;19.67;100.00
17383;BME280;8809;51.892;8.384;2022-10-26T12:19:45;100640.53;;;19.78;100.00
17383;BME280;8809;51.892;8.384;2022-10-26T12:22:16;100646.72;;;19.85;100.00
17383;BME280;8809;51.892;8.384;2022-10-26T12:24:45;100641.44;;;19.85;100.00
17383;BME280;8809;51.892;8.384;2022-10-26T12:27:34;100650.28;;;19.94;100.00
17383;BME280;8809;51.892;8.384;2022-10-26T12:30:29;100652.09;;;20.03;97.99
17383;BME280;8809;51.892;8.384;2022-10-26T12:32:57;100649.44;;;20.03;97.85
17383;BME280;8809;51.892;8.384;2022-10-26T12:35:42;100651.22;;;20.06;99.12
17383;BME280;8809;51.892;8.384;2022-10-26T12:41:19;100658.31;;;20.14;98.41
17383;BME280;8809;51.892;8.384;2022-10-26T12:43:48;100671.59;;;20.17;97.14
17383;BME280;8809;51.892;8.384;2022-10-26T12:46:40;100673.34;;;20.20;96.31
17383;BME280;8809;51.892;8.384;2022-10-26T12:52:30;100676.88;;;20.20;96.45
17383;BME280;8809;51.892;8.384;2022-10-26T12:58:31;100680.47;;;20.33;94.72
17383;BME280;8809;51.892;8.384;2022-10-26T13:01:27;100687.50;;;20.31;95.10
17383;BME280;8809;51.892;8.384;2022-10-26T13:04:07;100693.69;;;20.31;94.18
17383;BME280;8809;51.892;8.384;2022-10-26T13:06:46;100707.94;;;20.46;91.12
17383;BME280;8809;51.892;8.384;2022-10-26T13:09:19;100707.00;;;20.36;91.59
17383;BME280;8809;51.892;8.384;2022-10-26T13:11:51;100702.59;;;20.40;92.50
17383;BME280;8809;51.892;8.384;2022-10-26T13:14:20;100701.66;;;20.33;93.77
17383;BME280;8809;51.892;8.384;2022-10-26T13:16:51;100707.84;;;20.32;93.49
17383;BME280;8809;51.892;8.384;2022-10-26T13:19:26;100714.03;;;20.34;93.57
17383;BME280;8809;51.892;8.384;2022-10-26T13:21:58;100717.63;;;20.44;92.36
17383;BME280;8809;51.892;8.384;2022-10-26T13:24:27;100726.47;;;20.50;91.54
17383;BME280;8809;51.892;8.384;2022-10-26T13:27:26;100710.59;;;20.47;93.10